Time;durP1;ratioP1;P1;durP2;ratioP2;P2;SDS_P1;SDS_P2;PMS_P1;PMS_P2;Temp;Humidity;BMP_temperature;BMP_pressure;BME280_temperature;BME280_humidity;BME280_pressure;Samples;Min_cycle;Max_cycle;Signal;HPM_P1;HPM_P2
2022/12/19 00:00:21;;;;;;;0.65;0.65;;;-4.40;99.90;;;;;;5017028;28;20025;-76
2022/12/19 00:02:47;;;;;;;1.08;1.08;;;-4.40;99.90;;;;;;5034675;28;20035;-76
2022/12/19 00:05:12;;;;;;;0.60;0.60;;;-4.40;99.90;;;;;;5034806;28;20052;-76
2022/12/19 00:07:38;;;;;;;0.80;0.80;;;-4.50;99.90;;;;;;5034460;28;20026;-77
2022/12/19 00:10:05;;;;;;;0.68;0.68;;;-4.50;99.90;;;;;;5026306;28;20444;-77
2022/12/19 00:12:34;;;;;;;0.68;0.68;;;-4.50;99.90;;;;;;5012289;28;20399;-76
2022/12/19 00:14:59;;;;;;;1.95;1.85;;;-4.50;99.90;;;;;;5034661;28;20056;-77
2022/12/19 00:17:25;;;;;;;0.90;0.90;;;-4.50;99.90;;;;;;5034331;28;20018;-77
2022/12/19 00:19:50;;;;;;;0.70;0.70;;;-4.50;99.90;;;;;;5016826;28;20029;-77
2022/12/19 00:22:19;;;;;;;8.77;3.13;;;-4.50;99.90;;;;;;5032939;28;20045;-76
2022/12/19 00:24:44;;;;;;;1.40;1.40;;;-4.50;99.90;;;;;;5034426;28;20027;-76
2022/12/19 00:27:11;;;;;;;0.75;0.75;;;-4.50;99.90;;;;;;5016074;28;20506;-75
2022/12/19 00:29:36;;;;;;;0.60;0.60;;;-4.50;99.90;;;;;;5016628;28;20021;-76
2022/12/19 00:32:02;;;;;;;3.05;2.95;;;-4.50;99.90;;;;;;5016361;28;20453;-76
2022/12/19 00:34:27;;;;;;;0.70;0.70;;;-4.50;99.90;;;;;;5034238;28;20048;-76
2022/12/19 00:36:53;;;;;;;0.60;0.60;;;-4.50;99.90;;;;;;5031213;28;20030;-76
2022/12/19 00:39:18;;;;;;;0.60;0.60;;;-4.50;99.90;;;;;;5023924;28;20030;-75
2022/12/19 00:41:44;;;;;;;1.25;1.25;;;-4.50;99.90;;;;;;5033974;28;20036;-76
2022/12/19 00:44:14;;;;;;;3.50;1.48;;;-4.50;99.90;;;;;;5016387;28;20053;-76
2022/12/19 00:46:40;;;;;;;0.70;0.70;;;-4.60;99.90;;;;;;5033935;28;20060;-75
2022/12/19 00:49:06;;;;;;;0.68;0.68;;;-4.60;99.90;;;;;;5033760;28;20083;-74
2022/12/19 00:51:33;;;;;;;0.70;0.70;;;-4.60;99.90;;;;;;5034183;28;20033;-75
2022/12/19 00:53:59;;;;;;;0.80;0.80;;;-4.70;99.90;;;;;;5016164;28;20479;-75
2022/12/19 00:56:30;;;;;;;1.17;1.17;;;-4.70;99.90;;;;;;5034149;28;20037;-75
2022/12/19 00:58:56;;;;;;;0.55;0.55;;;-4.70;99.90;;;;;;5033842;28;20022;-77
2022/12/19 01:01:25;;;;;;;1.10;1.10;;;-4.70;99.90;;;;;;4995966;28;20396;-76
2022/12/19 01:03:52;;;;;;;3.17;2.97;;;-4.60;99.90;;;;;;5025635;28;20097;-75
2022/12/19 01:06:17;;;;;;;6.78;3.60;;;-4.60;99.90;;;;;;5015918;28;20021;-76
2022/12/19 01:08:46;;;;;;;7.90;7.10;;;-4.60;99.90;;;;;;5033345;28;20594;-75
2022/12/19 01:11:12;;;;;;;0.70;0.70;;;-4.60;99.90;;;;;;5033459;28;20104;-76
2022/12/19 01:13:38;;;;;;;0.70;0.70;;;-4.70;99.90;;;;;;5033427;28;20435;-76
2022/12/19 01:16:06;;;;;;;0.60;0.60;;;-4.60;99.90;;;;;;5015550;28;20038;-75
2022/12/19 01:18:32;;;;;;;1.05;1.05;;;-4.60;99.90;;;;;;5015305;28;20030;-74
2022/12/19 01:21:03;;;;;;;0.80;0.80;;;-4.50;99.90;;;;;;5033112;28;20191;-75
2022/12/19 01:23:30;;;;;;;7.72;7.18;;;-4.50;99.90;;;;;;5033131;28;20034;-75
2022/12/19 01:25:56;;;;;;;4.18;2.70;;;-4.50;99.90;;;;;;5033209;28;20029;-77
2022/12/19 01:28:22;;;;;;;0.60;0.60;;;-4.40;99.90;;;;;;5020383;28;20369;-76
2022/12/19 01:30:48;;;;;;;0.50;0.50;;;-4.60;99.90;;;;;;5026473;28;20492;-76
2022/12/19 01:33:16;;;;;;;2.15;2.05;;;-4.70;99.90;;;;;;5011548;28;20049;-76
2022/12/19 01:35:43;;;;;;;0.60;0.60;;;-4.70;99.90;;;;;;5026500;28;20022;-77
2022/12/19 01:38:17;;;;;;;1.83;1.73;;;-4.70;99.90;;;;;;5013112;28;20057;-77
2022/12/19 01:40:55;;;;;;;2.45;2.35;;;-4.90;99.90;;;;;;5032955;28;20025;-76
2022/12/19 01:43:22;;;;;;;0.60;0.60;;;-4.80;99.90;;;;;;5032854;28;20075;-76
2022/12/19 01:45:56;;;;;;;0.85;0.85;;;-4.60;99.90;;;;;;5015099;28;20018;-75
2022/12/19 01:48:28;;;;;;;0.70;0.70;;;-4.50;99.90;;;;;;5032646;28;20071;-76
2022/12/19 01:50:53;;;;;;;2.15;2.05;;;-4.50;99.90;;;;;;5032821;28;20100;-76
2022/12/19 01:53:21;;;;;;;1.30;1.23;;;-4.50;99.90;;;;;;5032627;28;20083;-76
2022/12/19 01:55:47;;;;;;;0.77;0.77;;;-4.50;99.90;;;;;;5021534;28;20022;-76
2022/12/19 01:58:13;;;;;;;0.55;0.55;;;-4.50;99.90;;;;;;5017450;28;20029;-76
2022/12/19 02:00:43;;;;;;;1.02;1.02;;;-4.50;99.90;;;;;;5032554;28;20573;-76
2022/12/19 02:03:24;;;;;;;0.68;0.68;;;-4.40;99.90;;;;;;5032491;28;20483;-75
2022/12/19 02:05:51;;;;;;;0.80;0.80;;;-4.40;99.90;;;;;;5031582;28;20022;-76
2022/12/19 02:08:17;;;;;;;16.63;6.25;;;-4.40;99.90;;;;;;5020251;28;20044;-76
2022/12/19 02:10:42;;;;;;;0.73;0.73;;;-4.40;99.90;;;;;;5001243;28;20029;-76
2022/12/19 02:13:09;;;;;;;1.13;1.13;;;-4.40;99.90;;;;;;5014675;28;20075;-75
2022/12/19 02:16:06;;;;;;;4.25;4.00;;;-4.40;99.90;;;;;;5032240;28;20030;-74
2022/12/19 02:18:46;;;;;;;1.10;1.10;;;-4.30;99.90;;;;;;5014818;28;20033;-74
2022/12/19 02:21:25;;;;;;;0.77;0.77;;;-4.30;99.90;;;;;;5032232;28;20033;-75
2022/12/19 02:24:23;;;;;;;0.50;0.50;;;-4.30;99.90;;;;;;5032335;28;20021;-75
2022/12/19 02:27:01;;;;;;;0.50;0.50;;;-4.50;99.90;;;;;;5004476;28;20057;-74
2022/12/19 02:29:42;;;;;;;0.60;0.60;;;-4.40;99.90;;;;;;5007137;28;20026;-75
2022/12/19 02:32:36;;;;;;;1.75;1.67;;;-4.40;99.90;;;;;;5031810;28;20104;-74
2022/12/19 02:35:17;;;;;;;0.80;0.80;;;-4.50;99.90;;;;;;5031932;28;20382;-75
2022/12/19 02:38:07;;;;;;;0.60;0.60;;;-4.50;99.90;;;;;;5031769;28;20029;-75
2022/12/19 02:40:39;;;;;;;40.75;6.72;;;-4.50;99.90;;;;;;5031887;28;20025;-77
2022/12/19 02:43:07;;;;;;;0.60;0.60;;;-4.40;99.90;;;;;;5032282;28;20159;-77
2022/12/19 02:45:36;;;;;;;1.30;1.30;;;-4.40;99.90;;;;;;5031334;28;20056;-76
2022/12/19 02:48:04;;;;;;;0.73;0.73;;;-4.40;99.90;;;;;;5031742;28;20022;-76
2022/12/19 02:50:44;;;;;;;1.08;1.08;;;-4.40;99.90;;;;;;5031909;28;20133;-76
2022/12/19 02:53:12;;;;;;;1.88;1.88;;;-4.40;99.90;;;;;;5014059;28;20021;-77
2022/12/19 02:56:01;;;;;;;0.70;0.70;;;-4.40;99.90;;;;;;5031972;28;20523;-76
2022/12/19 02:58:54;;;;;;;0.77;0.77;;;-4.40;99.90;;;;;;5010333;28;20026;-76
2022/12/19 03:01:45;;;;;;;0.50;0.50;;;-4.40;99.90;;;;;;5026802;28;20104;-76
2022/12/19 03:04:23;;;;;;;1.13;1.13;;;-4.40;99.90;;;;;;5010756;28;20029;-76
2022/12/19 03:07:08;;;;;;;1.80;1.70;;;-4.40;99.90;;;;;;5032066;28;20510;-75
2022/12/19 03:09:51;;;;;;;1.03;1.03;;;-4.40;99.90;;;;;;5009556;28;20041;-76
2022/12/19 03:12:29;;;;;;;0.80;0.80;;;-4.40;99.90;;;;;;4994083;28;20331;-76
2022/12/19 03:14:57;;;;;;;4.53;4.25;;;-4.30;99.90;;;;;;5023213;28;20113;-76
2022/12/19 03:17:25;;;;;;;0.50;0.50;;;-4.30;99.90;;;;;;5014061;28;20030;-75
2022/12/19 03:19:50;;;;;;;0.80;0.80;;;-4.30;99.90;;;;;;5022672;28;20133;-75
2022/12/19 03:22:16;;;;;;;0.50;0.50;;;-4.30;99.90;;;;;;5011558;28;20038;-76
2022/12/19 03:24:42;;;;;;;0.63;0.63;;;-4.30;99.90;;;;;;5004819;28;20439;-77
2022/12/19 03:27:13;;;;;;;2.70;1.35;;;-4.30;99.90;;;;;;5013728;28;20033;-77
2022/12/19 03:29:50;;;;;;;4.43;4.00;;;-4.20;99.90;;;;;;5013717;28;20022;-76
2022/12/19 03:32:17;;;;;;;0.55;0.55;;;-4.20;99.90;;;;;;5031237;28;20037;-77
2022/12/19 03:35:01;;;;;;;0.60;0.60;;;-4.20;99.90;;;;;;5031713;28;20036;-77
2022/12/19 03:37:32;;;;;;;3.63;3.42;;;-4.10;99.90;;;;;;5006873;28;20032;-77
2022/12/19 03:40:06;;;;;;;3.58;1.73;;;-4.20;99.90;;;;;;5017968;28;20026;-76
2022/12/19 03:45:58;;;;;;;2.60;1.70;;;-4.20;99.90;;;;;;5018125;28;20045;-76
2022/12/19 03:48:38;;;;;;;0.90;0.90;;;-4.20;99.90;;;;;;5031093;28;20626;-75
2022/12/19 03:51:48;;;;;;;0.80;0.80;;;-4.20;99.90;;;;;;5031223;28;20108;-74
2022/12/19 03:54:28;;;;;;;0.60;0.60;;;-4.20;99.90;;;;;;4970483;28;20042;-75
2022/12/19 03:57:03;;;;;;;0.60;0.60;;;-4.20;99.90;;;;;;4999784;28;20062;-74
2022/12/19 03:59:39;;;;;;;;;;;-4.20;99.90;;;;;;5031052;28;20034;-75
2022/12/19 04:02:05;;;;;;;0.85;0.85;;;-4.20;99.90;;;;;;5024953;28;19916;-75
2022/12/19 04:04:37;;;;;;;0.70;0.70;;;-4.20;99.90;;;;;;5018230;28;20108;-75
2022/12/19 04:07:04;;;;;;;0.60;0.60;;;-4.10;99.90;;;;;;5034638;28;20044;-76
2022/12/19 04:09:32;;;;;;;0.60;0.60;;;-4.10;99.90;;;;;;5013044;28;20050;-75
2022/12/19 04:12:07;;;;;;;0.60;0.60;;;-4.10;99.90;;;;;;5004641;28;20025;-75
2022/12/19 04:14:36;;;;;;;5.75;5.20;;;-4.10;99.90;;;;;;5033644;28;20086;-75
2022/12/19 04:17:31;;;;;;;0.70;0.70;;;-4.00;99.90;;;;;;5034331;28;20212;-75
2022/12/19 04:20:00;;;;;;;0.70;0.70;;;-3.90;99.90;;;;;;4996949;28;20026;-75
2022/12/19 04:22:44;;;;;;;1.23;1.23;;;-3.90;99.90;;;;;;5031071;28;20072;-75
2022/12/19 04:25:14;;;;;;;2.58;2.47;;;-3.90;99.90;;;;;;5026923;28;20037;-76
2022/12/19 04:27:45;;;;;;;0.60;0.60;;;-3.90;99.90;;;;;;5014515;28;20399;-76
2022/12/19 04:30:16;;;;;;;1.85;1.48;;;-3.90;99.90;;;;;;5028152;28;20391;-76
2022/12/19 04:32:47;;;;;;;0.70;0.70;;;-3.80;99.90;;;;;;5034165;28;20063;-76
2022/12/19 04:35:13;;;;;;;1.60;1.60;;;-3.90;99.90;;;;;;5034772;28;20032;-76
2022/12/19 04:37:39;;;;;;;1.55;1.45;;;-3.90;99.90;;;;;;5016272;28;20507;-75
2022/12/19 04:40:07;;;;;;;0.75;0.75;;;-3.80;99.90;;;;;;5034153;28;20037;-75
2022/12/19 04:42:33;;;;;;;1.02;1.02;;;-3.90;99.90;;;;;;5034004;28;20072;-75
2022/12/19 04:44:58;;;;;;;6.63;4.10;;;-3.90;99.90;;;;;;5034203;28;20021;-74
2022/12/19 04:47:24;;;;;;;1.83;1.73;;;-3.80;99.90;;;;;;5016056;28;20040;-76
2022/12/19 04:49:49;;;;;;;4.70;3.17;;;-3.70;99.90;;;;;;5033976;28;20014;-75
2022/12/19 04:52:15;;;;;;;1.27;1.17;;;-3.90;99.90;;;;;;5016193;28;20021;-75
2022/12/19 04:54:40;;;;;;;3.60;2.50;;;-3.90;99.90;;;;;;5016175;28;20029;-76
2022/12/19 04:57:06;;;;;;;0.68;0.68;;;-3.90;99.90;;;;;;5016125;28;20120;-76
2022/12/19 04:59:32;;;;;;;0.70;0.70;;;-3.90;99.90;;;;;;5033877;28;20488;-76
2022/12/19 05:01:57;;;;;;;0.70;0.70;;;-3.90;99.90;;;;;;5015949;28;20037;-75
2022/12/19 05:04:23;;;;;;;9.43;2.28;;;-3.90;99.90;;;;;;5016029;28;20018;-74
2022/12/19 05:06:48;;;;;;;1.35;1.35;;;-3.90;99.90;;;;;;5015813;28;20479;-76
2022/12/19 05:09:14;;;;;;;2.95;1.63;;;-3.90;99.90;;;;;;5032894;28;20438;-76
2022/12/19 05:11:40;;;;;;;3.38;3.15;;;-4.00;99.90;;;;;;5033614;28;20450;-76
2022/12/19 05:14:05;;;;;;;0.60;0.60;;;-4.00;99.90;;;;;;5016221;28;20032;-75
2022/12/19 05:16:31;;;;;;;0.70;0.70;;;-4.00;99.90;;;;;;5015826;28;20082;-75
2022/12/19 05:18:56;;;;;;;0.50;0.50;;;-4.00;99.90;;;;;;5031874;28;20365;-75
2022/12/19 05:21:23;;;;;;;1.60;1.60;;;-3.90;99.90;;;;;;5021604;28;20108;-76
2022/12/19 05:23:50;;;;;;;1.23;1.23;;;-3.90;99.90;;;;;;5015573;28;20116;-76
2022/12/19 05:26:16;;;;;;;1.40;1.40;;;-3.90;99.90;;;;;;5033439;28;20025;-75
2022/12/19 05:28:41;;;;;;;1.05;1.05;;;-3.80;99.90;;;;;;5033046;28;20148;-76
2022/12/19 05:31:10;;;;;;;17.52;8.73;;;-3.80;99.90;;;;;;5033257;28;20111;-76
2022/12/19 05:33:36;;;;;;;8.30;7.45;;;-3.80;99.90;;;;;;5033055;28;20029;-76
2022/12/19 05:36:03;;;;;;;3.13;3.03;;;-3.70;99.90;;;;;;5033311;28;20151;-76
2022/12/19 05:38:28;;;;;;;6.90;6.60;;;-3.70;99.90;;;;;;5032788;28;20057;-76
2022/12/19 05:40:54;;;;;;;0.60;0.60;;;-3.70;99.90;;;;;;5016334;28;20057;-78
2022/12/19 05:43:20;;;;;;;3.42;3.13;;;-3.70;99.90;;;;;;5035042;28;20396;-78
2022/12/19 05:45:46;;;;;;;1.88;1.85;;;-3.60;99.90;;;;;;5033151;28;20060;-77
2022/12/19 05:48:12;;;;;;;1.73;1.73;;;-3.70;99.90;;;;;;5032722;28;20035;-76
2022/12/19 05:50:38;;;;;;;1.10;1.10;;;-3.60;99.90;;;;;;5032907;28;20045;-76
2022/12/19 05:53:03;;;;;;;72.05;28.90;;;-3.60;99.90;;;;;;5014975;28;20256;-76
2022/12/19 05:55:29;;;;;;;1.15;1.15;;;-3.70;99.90;;;;;;5032809;28;20380;-75
2022/12/19 05:57:55;;;;;;;1.38;1.38;;;-3.70;99.90;;;;;;5032541;28;20026;-76
2022/12/19 06:00:20;;;;;;;0.70;0.70;;;-3.60;99.90;;;;;;5015132;28;20025;-77
2022/12/19 06:02:47;;;;;;;0.70;0.70;;;-3.60;99.90;;;;;;5022804;28;20041;-77
2022/12/19 06:05:13;;;;;;;0.70;0.70;;;-3.60;99.90;;;;;;5017632;28;20033;-77
2022/12/19 06:07:39;;;;;;;0.60;0.60;;;-3.70;99.90;;;;;;5006962;28;20697;-76
2022/12/19 06:10:05;;;;;;;0.60;0.60;;;-3.70;99.90;;;;;;5013933;28;20059;-77
2022/12/19 06:12:31;;;;;;;0.80;0.80;;;-3.70;99.90;;;;;;5031083;28;20026;-76
2022/12/19 06:14:56;;;;;;;0.60;0.60;;;-3.70;99.90;;;;;;5031251;28;20033;-76
2022/12/19 06:17:22;;;;;;;0.60;0.60;;;-3.70;99.90;;;;;;5013364;28;20059;-76
2022/12/19 06:19:47;;;;;;;3.33;3.05;;;-3.70;99.90;;;;;;5014432;28;20436;-76
2022/12/19 06:22:13;;;;;;;0.60;0.60;;;-3.70;99.90;;;;;;5014473;28;20120;-76
2022/12/19 06:24:39;;;;;;;1.83;1.83;;;-3.70;99.90;;;;;;5033037;28;20148;-76
2022/12/19 06:27:04;;;;;;;4.55;4.30;;;-3.70;99.90;;;;;;5014510;28;20071;-76
2022/12/19 06:29:30;;;;;;;1.27;1.27;;;-3.80;99.90;;;;;;5011798;28;20021;-76
2022/12/19 06:31:57;;;;;;;13.93;5.07;;;-3.60;99.90;;;;;;5014332;28;20041;-76
2022/12/19 06:34:22;;;;;;;2.00;1.90;;;-3.60;99.90;;;;;;5032313;28;20029;-76
2022/12/19 06:36:48;;;;;;;1.25;1.25;;;-3.60;99.90;;;;;;5032290;28;20395;-76
2022/12/19 06:39:14;;;;;;;3.53;1.90;;;-3.60;99.90;;;;;;5015450;28;20706;-76
2022/12/19 06:44:25;;;;;;;0.60;0.60;;;-3.50;99.90;;;;;;5032794;28;20109;-76
2022/12/19 06:46:53;;;;;;;0.73;0.73;;;-3.50;99.90;;;;;;5013896;28;20053;-76
2022/12/19 06:49:19;;;;;;;0.60;0.60;;;-3.50;99.90;;;;;;5020536;28;20087;-76
2022/12/19 06:51:45;;;;;;;1.02;1.02;;;-3.50;99.90;;;;;;5030365;28;20029;-76
2022/12/19 06:54:12;;;;;;;1.70;1.70;;;-3.60;99.90;;;;;;5032176;28;20076;-76
2022/12/19 06:56:39;;;;;;;0.90;0.90;;;-3.50;99.90;;;;;;5032740;28;20116;-76
2022/12/19 06:59:06;;;;;;;0.82;0.82;;;-3.50;99.90;;;;;;5020279;28;20033;-78
2022/12/19 07:01:49;;;;;;;0.60;0.60;;;-3.50;99.90;;;;;;5014145;28;20514;-76
2022/12/19 07:04:22;;;;;;;0.70;0.70;;;-3.40;99.90;;;;;;5030918;28;20084;-75
2022/12/19 07:06:48;;;;;;;0.90;0.90;;;-3.40;99.90;;;;;;5011996;28;20093;-76
2022/12/19 07:09:14;;;;;;;2.97;2.88;;;-3.40;99.90;;;;;;5014002;28;20120;-76
2022/12/19 07:11:39;;;;;;;5.07;3.17;;;-3.40;99.90;;;;;;5031608;28;20463;-76
2022/12/19 07:14:05;;;;;;;0.55;0.55;;;-3.40;99.90;;;;;;5013828;28;20030;-76
2022/12/19 07:16:30;;;;;;;0.70;0.70;;;-3.40;99.90;;;;;;5010754;28;20025;-76
2022/12/19 07:18:57;;;;;;;1.20;1.20;;;-3.30;99.90;;;;;;5026230;28;20060;-75
2022/12/19 07:21:23;;;;;;;0.82;0.82;;;-3.30;99.90;;;;;;5031314;28;20025;-76
2022/12/19 07:23:48;;;;;;;2.08;1.98;;;-3.20;99.90;;;;;;5031458;28;20029;-75
2022/12/19 07:26:14;;;;;;;0.77;0.77;;;-3.30;99.90;;;;;;5013788;28;20021;-73
2022/12/19 07:28:43;;;;;;;2.25;2.15;;;-3.20;99.90;;;;;;5017866;28;20022;-75
2022/12/19 07:31:09;;;;;;;0.60;0.60;;;-3.10;99.90;;;;;;5031615;28;20025;-75
2022/12/19 07:33:34;;;;;;;0.50;0.50;;;-3.00;99.90;;;;;;5035216;28;20044;-76
2022/12/19 07:36:00;;;;;;;0.70;0.70;;;-2.90;99.90;;;;;;5017612;28;20052;-75
2022/12/19 07:38:25;;;;;;;0.70;0.70;;;-2.90;99.90;;;;;;5021975;28;20092;-76
2022/12/19 07:40:51;;;;;;;1.00;1.00;;;-2.90;99.90;;;;;;5026484;28;20026;-75
2022/12/19 07:43:16;;;;;;;0.70;0.70;;;-2.90;99.90;;;;;;5007660;28;20029;-75
2022/12/19 07:45:42;;;;;;;0.82;0.82;;;-2.90;99.90;;;;;;5017296;28;20025;-74
2022/12/19 07:48:08;;;;;;;0.82;0.82;;;-2.90;99.90;;;;;;5034488;28;20104;-75
2022/12/19 07:50:34;;;;;;;3.15;1.77;;;-2.80;99.90;;;;;;5026598;28;20049;-75
2022/12/19 07:53:00;;;;;;;6.32;2.97;;;-2.80;99.90;;;;;;5030255;28;20092;-75
2022/12/19 07:55:25;;;;;;;0.70;0.70;;;-2.80;99.90;;;;;;5006774;28;20076;-74
2022/12/19 07:57:52;;;;;;;0.75;0.75;;;-2.90;99.90;;;;;;5034394;28;20399;-75
2022/12/19 08:00:18;;;;;;;0.60;0.60;;;-2.80;99.90;;;;;;5033030;28;20041;-75
2022/12/19 08:02:45;;;;;;;1.30;1.30;;;-2.80;99.90;;;;;;5035062;28;20453;-74
2022/12/19 08:05:11;;;;;;;22.58;6.57;;;-2.90;99.90;;;;;;5025922;28;20464;-75
2022/12/19 08:07:36;;;;;;;6.05;2.63;;;-2.90;99.90;;;;;;5029898;28;20033;-75
2022/12/19 08:10:02;;;;;;;0.60;0.60;;;-2.80;99.90;;;;;;5009171;28;20076;-76
2022/12/19 08:12:28;;;;;;;0.90;0.90;;;-2.80;99.90;;;;;;5029660;28;20075;-76
2022/12/19 08:14:53;;;;;;;0.65;0.65;;;-2.80;99.90;;;;;;5034593;28;20041;-75
2022/12/19 08:17:19;;;;;;;1.88;1.83;;;-2.80;99.90;;;;;;5020673;28;20044;-75
2022/12/19 08:19:44;;;;;;;0.70;0.70;;;-2.70;99.90;;;;;;5034471;28;20037;-76
2022/12/19 08:22:10;;;;;;;0.80;0.80;;;-2.60;99.90;;;;;;5034277;28;20093;-75
2022/12/19 08:24:35;;;;;;;0.65;0.65;;;-2.60;99.90;;;;;;5016609;28;20472;-74
2022/12/19 08:27:01;;;;;;;2.60;2.50;;;-2.50;99.90;;;;;;5020521;28;20021;-75
2022/12/19 08:29:27;;;;;;;0.60;0.60;;;-2.40;99.90;;;;;;5026689;28;20030;-75
2022/12/19 08:31:53;;;;;;;0.70;0.70;;;-2.40;99.90;;;;;;5015383;28;20038;-75
2022/12/19 08:34:18;;;;;;;0.57;0.57;;;-2.40;99.90;;;;;;5021930;28;20100;-76
2022/12/19 08:36:44;;;;;;;0.65;0.65;;;-2.40;99.90;;;;;;5023971;28;20041;-75
2022/12/19 08:39:10;;;;;;;1.60;1.60;;;-2.40;99.90;;;;;;5026001;28;20029;-76
2022/12/19 08:41:35;;;;;;;0.80;0.80;;;-2.30;99.90;;;;;;5033600;28;20562;-76
2022/12/19 08:44:01;;;;;;;0.50;0.50;;;-2.20;99.90;;;;;;5013332;28;20365;-75
2022/12/19 08:46:27;;;;;;;0.80;0.80;;;-2.20;99.90;;;;;;5016308;28;20464;-76
2022/12/19 08:48:52;;;;;;;0.77;0.77;;;-2.20;99.90;;;;;;5033703;28;20063;-76
2022/12/19 08:51:19;;;;;;;3.40;3.20;;;-2.20;99.90;;;;;;5034011;28;20025;-76
2022/12/19 08:53:45;;;;;;;1.10;1.10;;;-2.10;99.90;;;;;;5016126;28;20407;-76
2022/12/19 08:56:20;;;;;;;0.70;0.70;;;-2.00;99.90;;;;;;5033904;28;20545;-76
2022/12/19 08:58:47;;;;;;;1.13;1.13;;;-1.90;99.90;;;;;;4994089;28;20049;-77
2022/12/19 09:01:17;;;;;;;0.60;0.60;;;-1.80;99.90;;;;;;5004385;28;20057;-76
2022/12/19 09:03:44;;;;;;;1.17;1.17;;;-1.80;99.90;;;;;;5033675;28;20087;-76
2022/12/19 09:06:11;;;;;;;0.70;0.70;;;-1.70;99.90;;;;;;5033564;28;20562;-75
2022/12/19 09:08:37;;;;;;;2.05;1.95;;;-1.70;99.90;;;;;;5033074;28;20026;-75
2022/12/19 09:11:07;;;;;;;0.80;0.80;;;-1.60;99.90;;;;;;5033511;28;20026;-75
2022/12/19 09:13:33;;;;;;;0.60;0.60;;;-1.60;99.90;;;;;;5033446;28;20447;-75
2022/12/19 09:16:19;;;;;;;0.70;0.70;;;-1.60;99.90;;;;;;5015857;28;20032;-76
2022/12/19 09:18:47;;;;;;;0.80;0.80;;;-1.60;99.90;;;;;;5014834;28;20510;-75
2022/12/19 09:21:12;;;;;;;2.72;2.53;;;-1.50;99.90;;;;;;4989513;28;20116;-76
2022/12/19 09:23:39;;;;;;;0.82;0.82;;;-1.60;99.90;;;;;;5033215;28;20056;-74
2022/12/19 09:26:10;;;;;;;10.43;5.75;;;-1.70;99.90;;;;;;5033207;28;20033;-73
2022/12/19 09:28:37;;;;;;;0.80;0.80;;;-1.80;99.90;;;;;;5032615;28;20056;-75
2022/12/19 09:31:05;;;;;;;1.88;1.77;;;-1.80;99.90;;;;;;5032895;28;20555;-75
2022/12/19 09:33:33;;;;;;;1.08;1.08;;;-1.80;99.90;;;;;;5014202;28;20041;-74
2022/12/19 09:36:00;;;;;;;1.73;1.63;;;-1.70;99.90;;;;;;5015577;28;20017;-74
2022/12/19 09:38:27;;;;;;;3.53;3.30;;;-1.70;99.90;;;;;;5025962;28;20021;-73
2022/12/19 09:40:58;;;;;;;2.38;2.22;;;-1.60;99.90;;;;;;5031091;28;20120;-75
2022/12/19 09:44:07;;;;;;;0.80;0.80;;;-1.60;99.90;;;;;;5032683;28;20086;-74
2022/12/19 09:47:00;;;;;;;1.58;1.58;;;-1.50;99.90;;;;;;5014787;28;20049;-75
2022/12/19 09:49:31;;;;;;;2.63;2.53;;;-1.50;99.90;;;;;;5032646;28;20017;-75
2022/12/19 09:52:24;;;;;;;1.25;1.25;;;-1.40;99.90;;;;;;5032356;28;20044;-75
2022/12/19 09:55:17;;;;;;;0.90;0.90;;;-1.40;99.90;;;;;;5014296;28;20509;-75
2022/12/19 09:57:57;;;;;;;6.53;1.65;;;-1.30;99.90;;;;;;5031620;28;20030;-75
2022/12/19 10:00:23;;;;;;;3.65;2.97;;;-1.30;99.90;;;;;;5032265;28;20029;-74
2022/12/19 10:02:59;;;;;;;0.70;0.70;;;-1.40;99.90;;;;;;5031756;28;20539;-74
2022/12/19 10:05:43;;;;;;;2.13;1.83;;;-1.40;99.90;;;;;;5032169;28;20021;-75
2022/12/19 10:08:26;;;;;;;0.77;0.77;;;-1.30;99.90;;;;;;5031457;28;20018;-75
2022/12/19 10:11:08;;;;;;;0.70;0.70;;;-1.20;99.90;;;;;;5019015;28;20072;-75
2022/12/19 10:13:58;;;;;;;2.17;2.08;;;-1.10;99.90;;;;;;5032044;28;20029;-74
2022/12/19 10:16:42;;;;;;;3.42;3.33;;;-1.00;99.90;;;;;;5032052;28;20082;-74
2022/12/19 10:19:35;;;;;;;1.58;1.58;;;-1.00;99.90;;;;;;5031410;28;20542;-75
2022/12/19 10:22:10;;;;;;;3.58;3.38;;;-1.00;99.90;;;;;;5031920;28;20057;-75
2022/12/19 10:24:59;;;;;;;0.80;0.80;;;-0.90;99.90;;;;;;5014386;28;20029;-75
2022/12/19 10:28:10;;;;;;;1.23;1.23;;;-0.80;99.90;;;;;;5013564;28;20553;-75
2022/12/19 10:30:43;;;;;;;2.05;1.95;;;-0.80;99.90;;;;;;4951245;29;20117;-74
2022/12/19 10:33:25;;;;;;;5.77;4.03;;;-0.90;99.90;;;;;;5031604;22;20076;-72
2022/12/19 10:35:55;;;;;;;0.80;0.80;;;-1.00;99.90;;;;;;5011183;28;20057;-72
2022/12/19 10:38:58;;;;;;;2.70;2.60;;;-0.90;99.90;;;;;;5024067;28;20025;-72
2022/12/19 10:41:27;;;;;;;1.67;1.67;;;-0.90;99.90;;;;;;5031614;28;20387;-72
2022/12/19 10:44:05;;;;;;;0.80;0.80;;;-0.90;99.90;;;;;;5024664;28;20045;-72
2022/12/19 10:46:48;;;;;;;0.73;0.73;;;-0.90;99.90;;;;;;4991485;28;20388;-72
2022/12/19 10:49:16;;;;;;;0.77;0.77;;;-1.00;99.90;;;;;;5002401;28;20089;-72
2022/12/19 10:51:54;;;;;;;0.70;0.70;;;-0.80;99.90;;;;;;5012128;28;20026;-72
2022/12/19 10:54:22;;;;;;;0.75;0.75;;;-0.80;99.90;;;;;;4994281;28;20121;-72
2022/12/19 10:56:48;;;;;;;0.70;0.70;;;-0.70;99.90;;;;;;5011667;28;20468;-72
2022/12/19 10:59:16;;;;;;;1.73;1.67;;;-0.70;99.90;;;;;;5012028;28;20033;-72
2022/12/19 11:01:42;;;;;;;0.80;0.80;;;-0.70;99.90;;;;;;5011923;28;20026;-72
2022/12/19 11:04:35;;;;;;;0.77;0.77;;;-0.70;99.90;;;;;;4994324;28;20022;-73
2022/12/19 11:07:03;;;;;;;0.80;0.80;;;-0.70;99.90;;;;;;4999926;28;20060;-72
2022/12/19 11:09:40;;;;;;;2.75;2.65;;;-0.70;99.90;;;;;;4998969;28;20049;-73
2022/12/19 11:12:15;;;;;;;1.38;1.38;;;-0.60;99.90;;;;;;5007890;28;20030;-71
2022/12/19 11:14:45;;;;;;;0.80;0.80;;;-0.60;99.90;;;;;;5007066;28;20388;-72
2022/12/19 11:17:46;;;;;;;0.80;0.80;;;-0.40;99.90;;;;;;5005011;28;20034;-73
2022/12/19 11:20:23;;;;;;;0.88;0.88;;;-0.40;99.90;;;;;;4932032;29;20048;-72
2022/12/19 11:22:54;;;;;;;1.52;1.52;;;-0.30;99.90;;;;;;4990069;28;20431;-72
2022/12/19 11:25:22;;;;;;;1.67;1.58;;;-0.30;99.90;;;;;;5011002;28;20086;-73
2022/12/19 11:27:48;;;;;;;0.70;0.70;;;-0.20;99.90;;;;;;4997912;28;20442;-72
2022/12/19 11:30:14;;;;;;;0.70;0.70;;;-0.20;99.90;;;;;;5011692;28;20501;-72
2022/12/19 11:32:42;;;;;;;0.77;0.77;;;-0.10;99.90;;;;;;5011638;28;20026;-72
2022/12/19 11:35:21;;;;;;;1.65;1.65;;;-0.10;99.90;;;;;;5011510;28;20083;-73
2022/12/19 11:38:03;;;;;;;9.85;4.80;;;0.00;99.90;;;;;;5011257;28;20080;-73
2022/12/19 11:40:37;;;;;;;0.75;0.75;;;0.10;99.90;;;;;;5011565;28;20021;-72
2022/12/19 11:43:12;;;;;;;2.80;2.60;;;0.10;99.90;;;;;;5011540;28;20045;-73
2022/12/19 11:46:07;;;;;;;1.90;1.80;;;0.20;99.90;;;;;;4990728;28;20022;-73
2022/12/19 11:48:50;;;;;;;0.70;0.70;;;0.10;99.90;;;;;;4996792;28;20036;-72
2022/12/19 11:51:38;;;;;;;3.88;3.17;;;0.20;99.90;;;;;;5011465;28;20026;-72
2022/12/19 11:54:14;;;;;;;5.82;5.55;;;0.30;99.90;;;;;;5011515;28;20033;-72
2022/12/19 11:56:40;;;;;;;3.80;3.45;;;0.40;99.90;;;;;;5011235;28;20113;-73
2022/12/19 11:59:24;;;;;;;5.05;4.05;;;0.50;99.90;;;;;;5009429;28;20097;-72
2022/12/19 12:02:19;;;;;;;3.45;3.33;;;0.60;99.90;;;;;;5010792;28;20490;-73
2022/12/19 12:05:10;;;;;;;1.90;1.80;;;0.60;99.90;;;;;;5011488;28;20029;-72
2022/12/19 12:07:37;;;;;;;2.58;2.47;;;0.60;99.90;;;;;;5011378;28;20022;-72
2022/12/19 12:10:15;;;;;;;0.70;0.70;;;0.60;99.90;;;;;;5011337;28;20030;-72
2022/12/19 12:13:05;;;;;;;2.33;2.22;;;0.60;99.90;;;;;;5011282;28;20531;-73
2022/12/19 12:15:47;;;;;;;1.05;1.05;;;0.50;99.90;;;;;;5011253;28;20041;-73
2022/12/19 12:18:48;;;;;;;1.80;1.70;;;0.40;99.90;;;;;;5001791;28;20044;-72
2022/12/19 12:21:24;;;;;;;0.80;0.80;;;0.50;99.90;;;;;;4982283;28;20070;-73
2022/12/19 12:24:24;;;;;;;0.90;0.90;;;0.30;99.90;;;;;;4992113;28;20483;-72
2022/12/19 12:27:19;;;;;;;0.70;0.70;;;0.30;99.90;;;;;;5014575;28;20030;-74
2022/12/19 12:30:15;;;;;;;0.90;0.90;;;0.30;99.90;;;;;;4983485;28;20030;-73
2022/12/19 12:32:43;;;;;;;1.30;1.30;;;0.40;99.90;;;;;;4984844;28;20032;-73
2022/12/19 12:35:38;;;;;;;1.45;1.45;;;0.30;99.90;;;;;;5014570;28;20551;-72
2022/12/19 12:38:42;;;;;;;0.77;0.77;;;0.20;99.90;;;;;;4996827;28;20052;-73
2022/12/19 12:44:21;;;;;;;0.90;0.90;;;0.30;99.90;;;;;;4987674;28;20080;-72
2022/12/19 12:46:51;;;;;;;1.00;1.00;;;0.40;99.90;;;;;;5009800;28;20495;-72
2022/12/19 12:49:40;;;;;;;0.80;0.80;;;0.40;99.90;;;;;;4996759;28;20112;-75
2022/12/19 12:52:11;;;;;;;3.25;2.08;;;0.40;99.90;;;;;;5014326;28;20080;-73
2022/12/19 12:54:40;;;;;;;3.13;2.55;;;0.30;99.90;;;;;;5014171;28;20137;-73
2022/12/19 12:57:19;;;;;;;0.70;0.70;;;0.40;99.90;;;;;;5014089;28;20742;-72
2022/12/19 12:59:45;;;;;;;2.85;2.75;;;0.50;99.90;;;;;;5014128;28;20033;-72
2022/12/19 13:02:23;;;;;;;0.57;0.57;;;0.50;99.90;;;;;;5013760;28;20030;-73
2022/12/19 13:04:58;;;;;;;29.45;4.25;;;0.60;99.90;;;;;;4999516;28;20053;-74
2022/12/19 13:07:29;;;;;;;;;;;0.40;99.90;;;;;;5014354;28;20018;-73
2022/12/19 13:10:15;;;;;;;0.90;0.90;;;0.40;99.90;;;;;;5014137;28;20643;-74
2022/12/19 13:13:00;;;;;;;0.70;0.70;;;0.50;99.90;;;;;;5013757;28;20026;-73
2022/12/19 13:15:26;;;;;;;0.88;0.88;;;0.50;99.90;;;;;;4996236;28;20052;-72
2022/12/19 13:17:51;;;;;;;0.80;0.80;;;0.50;99.90;;;;;;4996122;28;20487;-72
2022/12/19 13:20:17;;;;;;;1.27;1.27;;;0.60;99.90;;;;;;5013845;28;20033;-72